Time;durP1;ratioP1;P1;durP2;ratioP2;P2;SDS_P1;SDS_P2;PMS_P1;PMS_P2;Temp;Humidity;BMP_temperature;BMP_pressure;BME280_temperature;BME280_humidity;BME280_pressure;Samples;Min_cycle;Max_cycle;Signal;HPM_P1;HPM_P2
2021/04/25 00:00:09;;;;;;;8.45;3.03;;;8.90;76.00;;;;;;6126940;23;20014;-88
2021/04/25 00:02:34;;;;;;;7.60;3.30;;;8.80;74.30;;;;;;6125895;23;20347;-89
2021/04/25 00:05:00;;;;;;;11.05;3.30;;;8.80;75.20;;;;;;6126881;23;20018;-88
2021/04/25 00:07:26;;;;;;;11.73;3.28;;;8.80;75.40;;;;;;6127134;23;20022;-88
2021/04/25 00:09:51;;;;;;;8.02;2.92;;;8.80;74.70;;;;;;6125971;23;20030;-89
2021/04/25 00:12:17;;;;;;;7.55;3.22;;;8.70;75.10;;;;;;6126828;23;20053;-87
2021/04/25 00:14:43;;;;;;;8.20;3.35;;;8.70;75.30;;;;;;6126885;23;20018;-87
2021/04/25 00:17:08;;;;;;;8.02;2.92;;;8.70;76.80;;;;;;6126060;23;20022;-87
2021/04/25 00:19:34;;;;;;;9.27;3.10;;;8.60;76.40;;;;;;6126434;23;20085;-87
2021/04/25 00:22:00;;;;;;;8.65;3.45;;;8.60;77.10;;;;;;6125891;23;20098;-87
2021/04/25 00:24:25;;;;;;;8.32;3.45;;;8.60;77.40;;;;;;6126546;23;20034;-87
2021/04/25 00:26:51;;;;;;;8.13;3.17;;;8.60;78.00;;;;;;6126566;23;20024;-86
2021/04/25 00:29:17;;;;;;;8.32;2.92;;;8.60;77.90;;;;;;6126240;23;20022;-87
2021/04/25 00:31:43;;;;;;;7.65;3.40;;;8.60;78.30;;;;;;6125675;23;20028;-86
2021/04/25 00:34:10;;;;;;;8.23;3.47;;;8.60;78.50;;;;;;6126451;23;20034;-86
2021/04/25 00:36:36;;;;;;;8.52;3.40;;;8.60;78.60;;;;;;6125017;23;20457;-86
2021/04/25 00:39:04;;;;;;;6.93;2.80;;;8.70;78.60;;;;;;6126744;23;20017;-86
2021/04/25 00:41:30;;;;;;;8.57;3.33;;;8.70;78.90;;;;;;6126659;23;20089;-86
2021/04/25 00:43:56;;;;;;;8.32;2.85;;;8.70;78.90;;;;;;6125895;23;20018;-86
2021/04/25 00:46:22;;;;;;;7.35;2.70;;;8.70;78.00;;;;;;6126771;23;20351;-86
2021/04/25 00:48:47;;;;;;;8.20;2.67;;;8.60;78.00;;;;;;6126405;23;20097;-86
2021/04/25 00:51:14;;;;;;;8.05;2.70;;;8.60;78.60;;;;;;6125707;23;20053;-87
2021/04/25 00:53:43;;;;;;;9.88;2.53;;;8.60;78.20;;;;;;6126174;23;20020;-87
2021/04/25 00:56:10;;;;;;;5.75;2.05;;;8.60;78.60;;;;;;6126481;23;20082;-86
2021/04/25 00:58:36;;;;;;;8.55;2.80;;;8.60;77.80;;;;;;6125260;23;20084;-87
2021/04/25 01:01:02;;;;;;;7.45;1.90;;;8.50;78.30;;;;;;6126450;23;20502;-87
2021/04/25 01:03:28;;;;;;;7.35;2.30;;;8.60;77.90;;;;;;6126347;23;20021;-87
2021/04/25 01:05:54;;;;;;;6.70;2.20;;;8.60;78.10;;;;;;6124705;23;20104;-86
2021/04/25 01:08:20;;;;;;;6.88;2.40;;;8.60;78.30;;;;;;6125778;23;20051;-86
2021/04/25 01:10:45;;;;;;;8.85;2.10;;;8.60;78.50;;;;;;6126002;23;20056;-86
2021/04/25 01:13:11;;;;;;;7.45;1.83;;;8.50;78.30;;;;;;6124755;23;20022;-87
2021/04/25 01:15:37;;;;;;;7.85;1.95;;;8.50;78.30;;;;;;6126023;23;20018;-86
2021/04/25 01:18:03;;;;;;;7.43;2.17;;;8.50;77.00;;;;;;6126776;23;20347;-86
2021/04/25 01:20:29;;;;;;;6.15;2.28;;;8.40;77.30;;;;;;6125414;23;20021;-86
2021/04/25 01:22:55;;;;;;;6.15;1.92;;;8.40;78.40;;;;;;6125670;23;20018;-86
2021/04/25 01:25:23;;;;;;;10.20;2.10;;;8.40;77.70;;;;;;6125508;23;20020;-86
2021/04/25 01:27:49;;;;;;;7.60;2.03;;;8.40;76.40;;;;;;6125529;23;20014;-88
2021/04/25 01:30:18;;;;;;;8.50;1.70;;;8.30;77.00;;;;;;6125136;23;20392;-86
2021/04/25 01:32:44;;;;;;;7.57;1.67;;;8.30;76.10;;;;;;6123805;23;20387;-86
2021/04/25 01:35:14;;;;;;;6.55;2.05;;;8.30;75.20;;;;;;6125173;23;20093;-87
2021/04/25 01:37:41;;;;;;;9.15;2.17;;;8.30;76.00;;;;;;6125093;23;20074;-86
2021/04/25 01:40:07;;;;;;;8.35;2.25;;;8.30;75.30;;;;;;6125654;23;20014;-87
2021/04/25 01:42:34;;;;;;;10.38;1.80;;;8.20;74.30;;;;;;6126012;23;20046;-86
2021/04/25 01:45:00;;;;;;;5.43;1.60;;;8.20;74.50;;;;;;6126297;23;20426;-87
2021/04/25 01:47:26;;;;;;;7.78;2.20;;;8.10;75.40;;;;;;6124891;23;20148;-86
2021/04/25 01:49:51;;;;;;;8.80;2.00;;;8.10;75.80;;;;;;6125867;23;20046;-87
2021/04/25 01:52:17;;;;;;;8.63;2.28;;;8.10;75.80;;;;;;6126152;23;20447;-85
2021/04/25 01:54:43;;;;;;;6.60;1.95;;;8.10;77.10;;;;;;6125051;23;20013;-86
2021/04/25 01:57:08;;;;;;;8.82;2.10;;;8.10;77.30;;;;;;6126083;23;20018;-87
2021/04/25 01:59:34;;;;;;;9.23;2.10;;;8.10;77.70;;;;;;6125888;23;20342;-86
2021/04/25 02:02:00;;;;;;;11.35;2.10;;;8.20;77.90;;;;;;6125371;23;20018;-86
2021/04/25 02:04:26;;;;;;;9.32;2.30;;;8.10;77.60;;;;;;6126009;23;20351;-86
2021/04/25 02:06:51;;;;;;;5.85;1.98;;;8.10;77.20;;;;;;6125401;23;20092;-87
2021/04/25 02:09:17;;;;;;;6.82;2.13;;;8.10;77.60;;;;;;6124741;23;20092;-86
2021/04/25 02:11:43;;;;;;;8.75;2.00;;;8.10;78.00;;;;;;6125846;23;20020;-87
2021/04/25 02:14:09;;;;;;;12.25;2.20;;;8.10;78.10;;;;;;6126222;23;20446;-86
2021/04/25 02:16:35;;;;;;;7.28;2.60;;;8.10;76.40;;;;;;6124657;23;20403;-86
2021/04/25 02:19:01;;;;;;;6.05;1.90;;;8.10;77.10;;;;;;6124347;23;20394;-86
2021/04/25 02:21:30;;;;;;;9.00;2.17;;;8.00;77.50;;;;;;6125695;23;20064;-86
2021/04/25 02:23:57;;;;;;;8.35;1.95;;;8.00;77.90;;;;;;6124802;23;20096;-86
2021/04/25 02:26:23;;;;;;;8.48;2.30;;;8.00;78.20;;;;;;6125812;23;20021;-87
2021/04/25 02:28:49;;;;;;;8.07;2.22;;;8.00;78.50;;;;;;6125137;23;20014;-87
2021/04/25 02:31:15;;;;;;;7.72;2.10;;;8.00;77.90;;;;;;6126085;23;20018;-87
2021/04/25 02:33:41;;;;;;;13.45;2.33;;;8.00;78.00;;;;;;6125547;23;20006;-86
2021/04/25 02:36:09;;;;;;;8.55;2.10;;;8.00;77.60;;;;;;6125428;23;20014;-86
2021/04/25 02:38:34;;;;;;;10.35;2.08;;;8.00;77.30;;;;;;6125829;23;20064;-85
2021/04/25 02:41:01;;;;;;;9.18;2.22;;;8.00;76.80;;;;;;6125577;23;20427;-86
2021/04/25 02:43:30;;;;;;;8.63;2.05;;;7.90;76.60;;;;;;6124842;23;20025;-86
2021/04/25 02:45:56;;;;;;;9.10;2.33;;;7.90;76.30;;;;;;6125241;23;20022;-86
2021/04/25 02:48:21;;;;;;;7.07;2.40;;;7.80;76.70;;;;;;6126054;23;20029;-85
2021/04/25 02:50:47;;;;;;;5.72;1.92;;;7.80;76.70;;;;;;6124455;23;20014;-86
2021/04/25 02:53:13;;;;;;;8.30;2.50;;;7.80;76.40;;;;;;6126296;23;20018;-85
2021/04/25 02:55:40;;;;;;;8.50;2.20;;;7.80;76.30;;;;;;6124862;23;20029;-86
2021/04/25 02:58:07;;;;;;;8.98;2.10;;;7.80;76.10;;;;;;6099775;23;20018;-86
2021/04/25 03:00:32;;;;;;;9.00;2.00;;;7.70;76.90;;;;;;6127653;23;20383;-85
2021/04/25 03:02:59;;;;;;;10.38;2.33;;;7.80;76.60;;;;;;6127576;23;20018;-86
2021/04/25 03:05:25;;;;;;;9.35;2.08;;;7.70;75.70;;;;;;6126634;23;20018;-86
2021/04/25 03:07:52;;;;;;;7.60;2.20;;;7.70;75.50;;;;;;6127399;23;20133;-85
2021/04/25 03:10:19;;;;;;;13.45;2.08;;;7.60;75.80;;;;;;6127620;23;20069;-86
2021/04/25 03:12:46;;;;;;;8.73;1.95;;;7.60;75.70;;;;;;6125858;23;20458;-85
2021/04/25 03:15:16;;;;;;;6.40;1.80;;;7.60;74.70;;;;;;6127255;23;20018;-85
2021/04/25 03:17:41;;;;;;;7.75;1.88;;;7.50;75.70;;;;;;6127309;23;20022;-85
2021/04/25 03:20:09;;;;;;;7.85;1.77;;;7.50;75.40;;;;;;6126277;23;20014;-86
2021/04/25 03:22:36;;;;;;;6.53;1.73;;;7.50;76.10;;;;;;6126613;23;20021;-86
2021/04/25 03:25:03;;;;;;;6.97;1.40;;;7.50;76.10;;;;;;6125934;23;20447;-86
2021/04/25 03:27:29;;;;;;;6.85;1.75;;;7.50;76.10;;;;;;6127748;23;20040;-85
2021/04/25 03:29:55;;;;;;;7.78;1.70;;;7.50;76.40;;;;;;6126726;23;20443;-86
2021/04/25 03:32:21;;;;;;;7.20;1.60;;;7.50;76.90;;;;;;6126128;23;20018;-87
2021/04/25 03:34:56;;;;;;;8.93;1.80;;;7.40;76.90;;;;;;6126833;23;20018;-86
2021/04/25 03:37:23;;;;;;;5.88;1.73;;;7.50;76.80;;;;;;6127145;23;20022;-87
2021/04/25 03:39:49;;;;;;;9.10;1.77;;;7.50;77.40;;;;;;6126129;23;20034;-87
2021/04/25 03:42:18;;;;;;;13.88;1.60;;;7.50;77.30;;;;;;6116259;23;20029;-87
2021/04/25 03:44:53;;;;;;;7.45;1.63;;;7.50;76.70;;;;;;6127135;23;20014;-86
2021/04/25 03:47:24;;;;;;;7.47;1.65;;;7.50;77.80;;;;;;6126418;23;20034;-84
2021/04/25 03:49:50;;;;;;;7.50;1.70;;;7.50;78.40;;;;;;6126749;23;20394;-86
2021/04/25 03:52:19;;;;;;;10.65;1.70;;;7.50;78.00;;;;;;6127563;23;20053;-85
2021/04/25 03:55:00;;;;;;;8.93;1.40;;;7.50;77.30;;;;;;6125981;23;20014;-86
2021/04/25 03:57:56;;;;;;;6.10;1.30;;;7.50;76.00;;;;;;6126751;23;20021;-84
2021/04/25 04:00:23;;;;;;;9.18;1.58;;;7.40;77.30;;;;;;6102012;23;20469;-85
2021/04/25 04:03:17;;;;;;;7.43;1.40;;;7.40;77.50;;;;;;6126267;23;20064;-85
2021/04/25 04:05:49;;;;;;;8.27;1.55;;;7.50;78.00;;;;;;6127014;23;20014;-85
2021/04/25 04:08:27;;;;;;;7.68;1.40;;;7.40;77.70;;;;;;6126220;23;20026;-85
2021/04/25 04:10:53;;;;;;;7.97;1.42;;;7.40;78.10;;;;;;6125871;23;20024;-85
2021/04/25 04:13:22;;;;;;;8.50;1.25;;;7.40;77.30;;;;;;6126946;23;20017;-86
2021/04/25 04:15:59;;;;;;;8.40;1.60;;;7.40;77.30;;;;;;6126323;23;20025;-86
2021/04/25 04:18:26;;;;;;;10.40;1.70;;;7.40;75.80;;;;;;6126731;23;20046;-85
2021/04/25 04:21:01;;;;;;;9.05;1.35;;;7.40;77.10;;;;;;6126231;23;20081;-85
2021/04/25 04:23:27;;;;;;;6.18;1.35;;;7.40;77.30;;;;;;6125719;23;20021;-86
2021/04/25 04:26:25;;;;;;;8.05;1.38;;;7.40;77.60;;;;;;6125764;23;20028;-86
2021/04/25 04:29:00;;;;;;;8.00;2.05;;;7.40;77.50;;;;;;6125098;23;20047;-84
2021/04/25 04:31:26;;;;;;;6.63;1.35;;;7.40;77.80;;;;;;6127060;23;20041;-85
2021/04/25 04:34:59;;;;;;;12.77;2.30;;;7.40;78.00;;;;;;6127144;23;20041;-84
2021/04/25 04:37:25;;;;;;;9.95;1.65;;;7.40;76.30;;;;;;6125406;23;20021;-86
2021/04/25 04:39:51;;;;;;;6.65;1.52;;;7.30;77.00;;;;;;6125837;23;20022;-84
2021/04/25 04:42:16;;;;;;;6.40;1.30;;;7.40;77.80;;;;;;6125620;23;20018;-84
2021/04/25 04:44:42;;;;;;;6.43;1.63;;;7.30;77.10;;;;;;6126255;23;20018;-85
2021/04/25 04:47:08;;;;;;;8.30;1.50;;;7.40;78.00;;;;;;6126215;23;20041;-85
2021/04/25 04:49:35;;;;;;;8.13;1.50;;;7.40;78.50;;;;;;6124428;23;20442;-85
2021/04/25 04:52:01;;;;;;;8.25;1.55;;;7.40;78.00;;;;;;6125916;23;20018;-83
2021/04/25 04:54:26;;;;;;;7.25;1.60;;;7.30;77.60;;;;;;6125872;23;20026;-84
2021/04/25 04:56:52;;;;;;;5.45;1.30;;;7.40;78.10;;;;;;6125190;23;20045;-84
2021/04/25 04:59:18;;;;;;;8.98;1.40;;;7.30;78.10;;;;;;6125730;23;20022;-84
2021/04/25 05:01:43;;;;;;;9.95;1.58;;;7.30;77.60;;;;;;6126117;23;20018;-84
2021/04/25 05:04:09;;;;;;;9.45;1.83;;;7.30;77.10;;;;;;6125565;23;20014;-85
2021/04/25 05:06:35;;;;;;;10.93;1.65;;;7.30;77.40;;;;;;6125640;23;20022;-85
2021/04/25 05:09:01;;;;;;;10.65;1.90;;;7.30;76.70;;;;;;6124814;23;20020;-84
2021/04/25 05:11:30;;;;;;;6.82;1.50;;;7.30;77.40;;;;;;6125643;23;20036;-82
2021/04/25 05:13:56;;;;;;;9.27;1.52;;;7.30;76.40;;;;;;6126217;23;20014;-85
2021/04/25 05:16:22;;;;;;;9.95;1.77;;;7.30;76.60;;;;;;6126533;23;20089;-81
2021/04/25 05:18:47;;;;;;;15.05;1.50;;;7.30;76.40;;;;;;6125269;23;20073;-83
2021/04/25 05:21:13;;;;;;;10.93;1.33;;;7.30;75.60;;;;;;6126603;23;20025;-83
2021/04/25 05:23:39;;;;;;;7.68;1.42;;;7.20;74.60;;;;;;6123679;23;20069;-84
2021/04/25 05:26:05;;;;;;;11.60;1.80;;;7.20;74.90;;;;;;6124466;23;20021;-84
2021/04/25 05:28:31;;;;;;;10.23;1.65;;;7.10;74.60;;;;;;6125040;23;20024;-85
2021/04/25 05:31:00;;;;;;;9.88;1.63;;;7.10;74.50;;;;;;6125264;23;20025;-84
2021/04/25 05:33:30;;;;;;;6.80;1.23;;;7.10;74.80;;;;;;6124237;23;20026;-83
2021/04/25 05:35:56;;;;;;;10.80;2.08;;;7.10;74.70;;;;;;6124828;23;20458;-84
2021/04/25 05:38:24;;;;;;;13.85;1.52;;;7.10;74.10;;;;;;6125100;23;20018;-84
2021/04/25 05:40:50;;;;;;;6.70;1.35;;;7.10;74.30;;;;;;6122274;23;20025;-84
2021/04/25 05:43:16;;;;;;;6.95;1.58;;;7.10;75.50;;;;;;6125102;23;20028;-84
2021/04/25 05:45:41;;;;;;;6.47;1.55;;;7.10;76.10;;;;;;6124092;23;20096;-85
2021/04/25 05:48:07;;;;;;;12.45;2.08;;;7.10;76.50;;;;;;6124914;23;20014;-85
2021/04/25 05:50:33;;;;;;;13.35;2.08;;;7.10;75.40;;;;;;6124673;23;20022;-85
2021/04/25 05:52:59;;;;;;;13.05;1.67;;;7.10;74.20;;;;;;6124259;23;20025;-88
2021/04/25 05:55:25;;;;;;;9.05;1.90;;;7.10;73.70;;;;;;6126480;23;20049;-84
2021/04/25 05:57:51;;;;;;;8.73;1.33;;;7.10;74.10;;;;;;6124433;23;20049;-89
2021/04/25 06:00:23;;;;;;;9.30;1.60;;;7.10;75.10;;;;;;6125977;23;20018;-86
2021/04/25 06:02:49;;;;;;;8.30;1.65;;;7.10;75.40;;;;;;6125563;23;20022;-85
2021/04/25 06:05:15;;;;;;;10.73;1.52;;;7.10;76.00;;;;;;6125800;23;20028;-85
2021/04/25 06:07:43;;;;;;;11.45;1.80;;;7.10;75.70;;;;;;6126148;23;20014;-85
2021/04/25 06:10:11;;;;;;;6.30;1.35;;;7.10;75.60;;;;;;6127419;23;20018;-85
2021/04/25 06:12:40;;;;;;;6.50;1.85;;;7.10;75.20;;;;;;6126476;23;20463;-85
2021/04/25 06:15:07;;;;;;;8.73;1.48;;;7.10;74.80;;;;;;6126179;23;20443;-85
2021/04/25 06:17:34;;;;;;;10.00;1.67;;;7.10;75.00;;;;;;6127209;23;20050;-85
2021/04/25 06:20:00;;;;;;;11.05;1.65;;;7.10;73.60;;;;;;6126772;23;20022;-84
2021/04/25 06:22:26;;;;;;;10.35;1.73;;;7.10;73.90;;;;;;6126197;23;20347;-84
2021/04/25 06:24:55;;;;;;;11.13;1.40;;;7.10;74.40;;;;;;6126670;23;20485;-86
2021/04/25 06:27:24;;;;;;;12.13;1.48;;;7.10;73.90;;;;;;6128080;23;20018;-83
2021/04/25 06:29:49;;;;;;;9.98;1.70;;;7.10;74.30;;;;;;6124686;23;20018;-85
2021/04/25 06:32:15;;;;;;;6.85;1.35;;;7.10;74.70;;;;;;6125190;23;20021;-87
2021/04/25 06:34:41;;;;;;;7.63;1.50;;;7.10;75.60;;;;;;6127489;23;20101;-84
2021/04/25 06:37:07;;;;;;;9.32;1.88;;;7.10;75.20;;;;;;6127406;23;20018;-84
2021/04/25 06:39:34;;;;;;;7.78;1.48;;;7.20;75.60;;;;;;6127288;23;20018;-84
2021/04/25 06:42:03;;;;;;;8.93;1.52;;;7.20;76.50;;;;;;6126452;23;20446;-85
2021/04/25 06:44:29;;;;;;;8.00;1.40;;;7.20;76.30;;;;;;6126522;23;20021;-84
2021/04/25 06:46:54;;;;;;;7.80;1.40;;;7.20;75.50;;;;;;6127182;23;20018;-84
2021/04/25 06:49:21;;;;;;;11.02;1.60;;;7.30;75.30;;;;;;6127062;23;20343;-84
2021/04/25 06:51:48;;;;;;;10.32;1.63;;;7.30;74.90;;;;;;6127330;23;20018;-84
2021/04/25 06:54:14;;;;;;;9.65;1.27;;;7.30;75.20;;;;;;6127678;23;20022;-84
2021/04/25 06:56:40;;;;;;;6.10;1.45;;;7.30;75.20;;;;;;6126561;23;20320;-85
2021/04/25 06:59:09;;;;;;;7.28;1.40;;;7.40;74.90;;;;;;6127706;23;20042;-83
2021/04/25 07:01:36;;;;;;;7.18;1.40;;;7.40;74.70;;;;;;6126577;23;20096;-85
2021/04/25 07:04:06;;;;;;;10.85;1.55;;;7.40;75.20;;;;;;6126408;23;20525;-83
2021/04/25 07:06:44;;;;;;;9.35;1.40;;;7.40;73.90;;;;;;6125489;23;20025;-83
2021/04/25 07:09:10;;;;;;;9.73;1.60;;;7.40;75.20;;;;;;6125688;23;20026;-83
2021/04/25 07:11:35;;;;;;;6.20;1.40;;;7.40;75.30;;;;;;6125330;23;20018;-83
2021/04/25 07:14:19;;;;;;;12.43;1.85;;;7.40;75.20;;;;;;6127538;23;20022;-85
2021/04/25 07:16:45;;;;;;;11.43;1.55;;;7.40;75.20;;;;;;6126349;23;20018;-84
2021/04/25 07:19:14;;;;;;;11.40;1.92;;;7.40;75.00;;;;;;6127045;23;20021;-82
2021/04/25 07:25:20;;;;;;;9.43;1.40;;;7.50;75.60;;;;;;6115205;23;20080;-83
2021/04/25 07:27:46;;;;;;;9.43;1.67;;;7.50;75.40;;;;;;6129390;23;20049;-84
2021/04/25 07:30:18;;;;;;;10.07;1.85;;;7.50;76.60;;;;;;6129216;23;20510;-82
2021/04/25 07:33:12;;;;;;;5.40;1.45;;;7.50;75.50;;;;;;6130130;23;20018;-88
2021/04/25 07:39:46;;;;;;;8.73;1.50;;;7.50;76.40;;;;;;6128063;23;20532;-82
2021/04/25 07:42:35;;;;;;;6.45;1.23;;;7.50;76.10;;;;;;6128354;23;20037;-82
2021/04/25 07:48:10;;;;;;;14.00;1.70;;;7.60;76.70;;;;;;6154304;23;20030;-81
2021/04/25 07:50:39;;;;;;;7.43;1.50;;;7.60;75.50;;;;;;6157370;23;20049;-82
2021/04/25 07:56:30;;;;;;;6.57;1.45;;;7.70;76.90;;;;;;6157032;23;20032;-83
2021/04/25 07:59:02;;;;;;;10.15;1.85;;;7.70;76.80;;;;;;6157679;23;20014;-83
2021/04/25 08:02:02;;;;;;;11.75;1.55;;;7.80;76.70;;;;;;6155370;23;20025;-83
2021/04/25 08:04:56;;;;;;;7.53;1.38;;;7.80;76.00;;;;;;6157321;23;20156;-83
2021/04/25 08:08:13;;;;;;;9.52;1.73;;;7.80;75.20;;;;;;6156876;23;20049;-83
2021/04/25 08:11:00;;;;;;;9.05;1.70;;;7.80;76.40;;;;;;6008764;23;20475;-84
2021/04/25 08:14:02;;;;;;;7.07;1.17;;;7.90;75.40;;;;;;6063225;23;20021;-83
2021/04/25 08:16:30;;;;;;;7.63;1.45;;;7.90;76.40;;;;;;6156034;23;20032;-85
2021/04/25 08:19:17;;;;;;;8.55;1.70;;;8.00;76.10;;;;;;6156016;23;20025;-78
2021/04/25 08:21:49;;;;;;;6.90;1.40;;;8.00;74.70;;;;;;6154188;23;20025;-78
2021/04/25 08:24:42;;;;;;;10.57;1.50;;;8.00;73.40;;;;;;6156562;23;20022;-80
2021/04/25 08:27:08;;;;;;;8.48;1.90;;;8.00;70.70;;;;;;6156371;23;20017;-80
2021/04/25 08:29:43;;;;;;;9.48;1.67;;;7.90;71.80;;;;;;6156201;23;20061;-79
2021/04/25 08:35:45;;;;;;;10.25;1.80;;;8.00;74.20;;;;;;6156009;23;20023;-82
2021/04/25 08:38:11;;;;;;;7.43;1.35;;;8.00;72.00;;;;;;6157570;23;20021;-82
2021/04/25 08:44:42;;;;;;;8.30;1.63;;;8.10;72.80;;;;;;6158876;22;20028;-84
2021/04/25 08:48:21;;;;;;;5.72;1.25;;;8.10;73.90;;;;;;6166084;23;20017;-85
2021/04/25 08:51:14;;;;;;;10.35;1.45;;;8.20;74.30;;;;;;6118137;23;20096;-84
2021/04/25 08:53:41;;;;;;;10.93;1.15;;;8.20;74.20;;;;;;6083001;23;20017;-82
2021/04/25 08:56:07;;;;;;;7.03;1.30;;;8.20;74.70;;;;;;6154371;23;20123;-80
2021/04/25 08:58:36;;;;;;;6.85;1.20;;;8.30;75.60;;;;;;6156108;23;20025;-82
2021/04/25 09:01:03;;;;;;;8.02;1.50;;;8.30;74.40;;;;;;6155562;23;20013;-81
2021/04/25 09:03:29;;;;;;;7.95;1.30;;;8.30;74.40;;;;;;6155050;23;20028;-81
2021/04/25 09:05:58;;;;;;;8.38;1.40;;;8.30;73.30;;;;;;6153294;23;20029;-81
2021/04/25 09:08:47;;;;;;;8.73;1.50;;;8.30;72.10;;;;;;6153481;23;20017;-81
2021/04/25 09:11:32;;;;;;;7.13;1.48;;;8.30;72.10;;;;;;6155420;23;20021;-82
2021/04/25 09:14:17;;;;;;;11.02;1.48;;;8.30;72.70;;;;;;6155799;23;20381;-81
2021/04/25 09:16:46;;;;;;;8.32;1.70;;;8.30;72.90;;;;;;6152549;23;20023;-82
2021/04/25 09:19:13;;;;;;;8.77;1.63;;;8.30;71.80;;;;;;6154662;23;20024;-81
2021/04/25 09:21:53;;;;;;;6.90;1.48;;;8.30;71.00;;;;;;6128196;23;20049;-82
2021/04/25 09:24:24;;;;;;;6.53;1.30;;;8.40;71.30;;;;;;6154776;23;20017;-82
2021/04/25 09:26:51;;;;;;;10.90;1.45;;;8.30;70.90;;;;;;6154375;23;20434;-81
2021/04/25 09:29:19;;;;;;;8.23;1.50;;;8.40;72.10;;;;;;6155210;23;20025;-81
2021/04/25 09:31:55;;;;;;;8.65;1.30;;;8.40;72.30;;;;;;6151952;23;20021;-81
2021/04/25 09:35:03;;;;;;;9.02;1.33;;;8.40;71.10;;;;;;6154799;23;20458;-81
2021/04/25 09:37:49;;;;;;;8.38;1.30;;;8.40;70.80;;;;;;6154523;23;20088;-81
2021/04/25 09:40:19;;;;;;;8.88;1.63;;;8.40;72.20;;;;;;6154723;23;20079;-81
2021/04/25 09:43:08;;;;;;;7.25;1.30;;;8.40;71.00;;;;;;6109303;23;20029;-80
2021/04/25 09:45:44;;;;;;;9.73;1.40;;;8.50;72.80;;;;;;6124401;23;20022;-81
2021/04/25 09:48:28;;;;;;;8.25;1.35;;;8.50;73.40;;;;;;6125667;23;20461;-80
2021/04/25 09:51:16;;;;;;;6.53;1.40;;;8.60;71.80;;;;;;6125532;23;20033;-83
2021/04/25 09:53:55;;;;;;;7.43;1.33;;;8.60;72.50;;;;;;6124598;23;20076;-81
2021/04/25 09:56:23;;;;;;;7.70;1.35;;;8.60;72.50;;;;;;6126131;23;20024;-81
2021/04/25 09:59:00;;;;;;;6.72;1.20;;;8.70;72.80;;;;;;6124785;23;20458;-81
2021/04/25 10:01:30;;;;;;;11.43;1.60;;;8.70;73.00;;;;;;6126290;23;20355;-81
2021/04/25 10:03:59;;;;;;;7.97;1.45;;;8.80;73.50;;;;;;6125460;23;20018;-79
2021/04/25 10:06:25;;;;;;;7.32;1.45;;;8.80;73.00;;;;;;6124464;23;20144;-80
2021/04/25 10:08:52;;;;;;;6.97;1.60;;;8.90;73.60;;;;;;6127937;23;20062;-80
2021/04/25 10:11:20;;;;;;;10.80;1.42;;;8.90;73.00;;;;;;6127400;23;20025;-81
2021/04/25 10:13:47;;;;;;;9.48;1.45;;;8.90;71.90;;;;;;6127092;23;20024;-81
2021/04/25 10:16:19;;;;;;;6.07;1.27;;;8.90;71.60;;;;;;6127911;23;20018;-81
2021/04/25 10:18:45;;;;;;;5.82;1.30;;;9.00;72.20;;;;;;6128105;23;20315;-85
2021/04/25 10:21:11;;;;;;;8.52;1.80;;;9.00;71.90;;;;;;6127576;23;20026;-84
2021/04/25 10:23:38;;;;;;;9.60;1.70;;;9.00;70.30;;;;;;6126826;23;20018;-81
2021/04/25 10:26:17;;;;;;;8.82;1.60;;;9.10;71.20;;;;;;6127769;23;20022;-81
2021/04/25 10:28:46;;;;;;;7.70;1.58;;;9.10;70.00;;;;;;6127061;23;20032;-81
2021/04/25 10:31:17;;;;;;;7.32;1.35;;;9.10;71.50;;;;;;6127320;23;20073;-81
2021/04/25 10:34:05;;;;;;;8.60;1.63;;;9.20;72.60;;;;;;6127104;23;20022;-82
2021/04/25 10:36:46;;;;;;;5.40;1.20;;;9.20;72.30;;;;;;6115611;23;20144;-84
2021/04/25 10:39:46;;;;;;;9.07;1.58;;;9.20;73.50;;;;;;6127508;23;20018;-84
2021/04/25 10:42:17;;;;;;;8.98;1.73;;;9.30;74.30;;;;;;6114571;23;20392;-84
2021/04/25 10:44:58;;;;;;;6.65;1.40;;;9.30;72.50;;;;;;6146570;23;20484;-84
2021/04/25 10:47:29;;;;;;;7.88;1.40;;;9.40;72.80;;;;;;6157546;23;20013;-83
2021/04/25 10:49:59;;;;;;;9.50;1.83;;;9.40;70.70;;;;;;6156338;23;20028;-84
2021/04/25 10:52:29;;;;;;;9.15;1.63;;;9.40;70.10;;;;;;6131703;23;20024;-84
2021/04/25 10:55:14;;;;;;;10.52;1.85;;;9.40;69.50;;;;;;6156796;23;20394;-85
2021/04/25 10:58:01;;;;;;;6.88;1.55;;;9.50;68.40;;;;;;6157189;23;20018;-82
2021/04/25 11:00:29;;;;;;;6.45;1.40;;;9.50;70.20;;;;;;6157147;23;20308;-82
2021/04/25 11:02:56;;;;;;;6.43;1.30;;;9.50;72.30;;;;;;6154966;23;20049;-81
2021/04/25 11:05:37;;;;;;;8.25;1.55;;;9.60;72.80;;;;;;6156554;23;20342;-82
2021/04/25 11:08:12;;;;;;;7.85;1.77;;;9.70;72.90;;;;;;6157013;23;20017;-83
2021/04/25 11:10:58;;;;;;;5.90;1.60;;;9.70;71.10;;;;;;6155585;23;20327;-82
2021/04/25 11:13:36;;;;;;;7.55;1.63;;;9.80;69.80;;;;;;6157535;23;20048;-82
2021/04/25 11:16:06;;;;;;;6.85;1.42;;;9.80;68.90;;;;;;6156578;23;20014;-83
2021/04/25 11:19:09;;;;;;;7.57;1.40;;;9.90;69.30;;;;;;6156279;23;20089;-85
2021/04/25 11:21:46;;;;;;;9.27;1.63;;;10.00;69.20;;;;;;6156683;23;20028;-85
2021/04/25 11:24:12;;;;;;;7.75;1.48;;;9.90;66.30;;;;;;6156280;23;20013;-85
2021/04/25 11:26:43;;;;;;;9.82;1.88;;;10.00;67.30;;;;;;6157088;23;20082;-85
2021/04/25 11:29:42;;;;;;;10.32;1.65;;;10.00;68.50;;;;;;6156963;23;20021;-86
2021/04/25 11:32:23;;;;;;;7.22;1.48;;;10.10;68.10;;;;;;6155588;23;20326;-85
2021/04/25 11:35:00;;;;;;;7.80;1.40;;;10.20;67.30;;;;;;6156317;23;20013;-89
2021/04/25 11:37:26;;;;;;;6.47;1.33;;;10.30;67.70;;;;;;6155702;23;20151;-84
2021/04/25 11:39:58;;;;;;;7.55;1.48;;;10.30;69.30;;;;;;6155106;23;20017;-83
2021/04/25 11:42:37;;;;;;;7.53;1.60;;;10.40;69.70;;;;;;6153707;23;20014;-86
2021/04/25 11:45:13;;;;;;;6.63;1.60;;;10.50;71.30;;;;;;6153106;23;20346;-82
2021/04/25 11:47:47;;;;;;;7.25;1.33;;;10.60;71.50;;;;;;6153330;23;20013;-83
2021/04/25 11:50:16;;;;;;;13.02;1.60;;;10.70;71.90;;;;;;6154298;23;20457;-83
2021/04/25 11:52:43;;;;;;;7.13;1.48;;;10.70;69.80;;;;;;6153972;23;20026;-84
2021/04/25 11:55:17;;;;;;;7.10;1.40;;;10.80;70.10;;;;;;6155086;23;20033;-84
2021/04/25 11:57:49;;;;;;;6.82;1.38;;;10.90;68.20;;;;;;6146924;23;20446;-84
2021/04/25 12:00:29;;;;;;;9.20;1.48;;;11.00;68.20;;;;;;6156183;23;20022;-83
2021/04/25 12:03:05;;;;;;;6.78;1.30;;;11.10;69.20;;;;;;6156677;23;20061;-84
2021/04/25 12:05:38;;;;;;;9.38;1.60;;;11.20;70.60;;;;;;6155641;23;20017;-83
2021/04/25 12:08:12;;;;;;;10.82;1.50;;;11.20;70.70;;;;;;6156682;23;20345;-82
2021/04/25 12:10:43;;;;;;;8.60;1.30;;;11.30;70.50;;;;;;6156108;23;20021;-81
2021/04/25 12:13:19;;;;;;;10.52;1.35;;;11.30;68.80;;;;;;6153651;23;20018;-81
2021/04/25 12:15:59;;;;;;;11.25;1.65;;;11.30;66.20;;;;;;6156289;23;20025;-84
2021/04/25 12:18:32;;;;;;;7.85;1.55;;;11.40;67.00;;;;;;6157111;23;20029;-84
2021/04/25 12:21:06;;;;;;;7.97;1.30;;;11.50;65.20;;;;;;6154760;23;20024;-85
2021/04/25 12:23:34;;;;;;;10.88;1.80;;;11.50;65.00;;;;;;6156517;23;20028;-85
2021/04/25 12:26:07;;;;;;;8.82;1.80;;;11.50;65.20;;;;;;6156503;23;20346;-86
2021/04/25 12:28:38;;;;;;;9.45;1.52;;;11.60;63.40;;;;;;6155862;23;20014;-86
2021/04/25 12:31:04;;;;;;;8.05;1.50;;;11.60;63.00;;;;;;6156501;23;20021;-86
2021/04/25 12:33:43;;;;;;;7.25;1.70;;;11.60;63.20;;;;;;6154302;23;20017;-86
2021/04/25 12:36:12;;;;;;;9.63;1.58;;;11.60;66.20;;;;;;6156021;23;20029;-84
2021/04/25 12:38:39;;;;;;;9.05;1.40;;;11.60;66.50;;;;;;6156020;23;20014;-85
2021/04/25 12:41:10;;;;;;;6.75;1.38;;;11.70;66.10;;;;;;6155494;23;20022;-84
2021/04/25 12:43:46;;;;;;;7.55;1.40;;;11.70;65.80;;;;;;6155939;23;20076;-85
2021/04/25 12:46:17;;;;;;;5.65;1.20;;;11.70;67.20;;;;;;6156462;23;20021;-84
2021/04/25 12:48:53;;;;;;;8.07;1.40;;;11.70;69.80;;;;;;6155772;23;20017;-84
2021/04/25 12:51:22;;;;;;;7.90;1.67;;;11.80;70.30;;;;;;6156821;23;20017;-85
2021/04/25 12:53:50;;;;;;;8.60;1.67;;;11.90;70.70;;;;;;6156621;23;20064;-84
2021/04/25 12:56:26;;;;;;;7.15;1.65;;;12.00;70.40;;;;;;6154763;23;20017;-84
2021/04/25 12:58:58;;;;;;;10.50;1.75;;;12.00;68.60;;;;;;6154488;23;20398;-84
2021/04/25 13:01:25;;;;;;;9.45;1.40;;;12.10;66.10;;;;;;6152661;23;20096;-84
2021/04/25 13:03:50;;;;;;;7.50;1.30;;;12.10;67.30;;;;;;6152866;23;20026;-82
2021/04/25 13:06:31;;;;;;;6.82;1.40;;;12.20;69.00;;;;;;6155911;23;20021;-83
2021/04/25 13:08:58;;;;;;;8.25;1.30;;;12.30;69.10;;;;;;6155855;23;20021;-84
2021/04/25 13:11:34;;;;;;;10.13;1.73;;;12.30;67.60;;;;;;6157045;23;20014;-84
2021/04/25 13:14:10;;;;;;;6.50;1.50;;;12.30;67.40;;;;;;6156089;23;20092;-86
2021/04/25 13:16:37;;;;;;;7.15;1.30;;;12.30;67.80;;;;;;6154036;23;20454;-82
2021/04/25 13:19:10;;;;;;;7.95;1.48;;;12.30;69.50;;;;;;6154127;23;20021;-82
2021/04/25 13:21:45;;;;;;;5.90;1.50;;;12.30;70.50;;;;;;6155860;23;20014;-88
2021/04/25 13:24:14;;;;;;;9.00;1.55;;;12.40;70.30;;;;;;6155216;23;20083;-84
2021/04/25 13:26:41;;;;;;;5.75;1.30;;;12.50;71.20;;;;;;6156073;23;20013;-85
2021/04/25 13:29:21;;;;;;;7.65;1.35;;;12.50;72.00;;;;;;6155017;23;20017;-81
2021/04/25 13:31:49;;;;;;;6.10;1.60;;;12.60;71.70;;;;;;6152853;23;20020;-82
2021/04/25 13:34:15;;;;;;;7.93;1.40;;;12.60;71.40;;;;;;6153754;23;20334;-83